This is the latest recevied weather packets stored in our database for station/object WI0K. If no packets are shown the sender has not sent any weather packets the latest 10 day(s).
| Time | Temp. | Humidity | Pressure | Rain* | Wind** | Luminosity | Snow |
|---|---|---|---|---|---|---|---|
| 1778132544 | 1.11° C | 86% | 1017.9 hPa | 0 mm | - | 0 W/m² | - |
| 1778132299 | 1.11° C | 86% | 1017.9 hPa | 0 mm | - | 0 W/m² | - |
| 1778132239 | 1.11° C | 86% | 1017.9 hPa | 0 mm | - | 0 W/m² | - |
| 1778131998 | 1.11° C | 86% | 1017.9 hPa | 0 mm | - | 0 W/m² | - |
| 1778131698 | 1.11° C | 86% | 1018.1 hPa | 0 mm | - | 0 W/m² | - |
| 1778131648 | 1.11° C | 88% | 1017.9 hPa | 0 mm | - | 0 W/m² | - |
| 1778131397 | 1.11° C | 88% | 1017.9 hPa | 0 mm | - | 0 W/m² | - |
| 1778131348 | 1.67° C | 85% | 1018.1 hPa | 0 mm | - | 0 W/m² | - |
| 1778131096 | 1.67° C | 85% | 1018.1 hPa | 0 mm | - | 0 W/m² | - |
| 1778130796 | 1.67° C | 86% | 1018.2 hPa | 0 mm | - | 0 W/m² | - |
| 1778130495 | 1.67° C | 85% | 1018.2 hPa | 0 mm | - | 0 W/m² | - |
| 1778130195 | 1.11° C | 85% | 1018.2 hPa | 0 mm | - | 0 W/m² | - |
| 1778129894 | 1.11° C | 86% | 1018.2 hPa | 0 mm | - | 0 W/m² | - |
| 1778129593 | 1.11° C | 86% | 1018.2 hPa | 0 mm | - | 0 W/m² | - |
| 1778129293 | 1.11° C | 86% | 1018.3 hPa | 0 mm | - | 0 W/m² | - |
| 1778128992 | 1.11° C | 87% | 1018.2 hPa | 0 mm | - | 0 W/m² | - |
| 1778128691 | 1.11° C | 87% | 1018.2 hPa | 0 mm | - | 0 W/m² | - |
| 1778128391 | 1.11° C | 87% | 1018.2 hPa | 0 mm | - | 0 W/m² | - |
| 1778128090 | 1.11° C | 88% | 1018.2 hPa | 0 mm | - | 0 W/m² | - |
| 1778127789 | 1.11° C | 88% | 1018.2 hPa | 0 mm | - | 0 W/m² | - |
| 1778127489 | 1.11° C | 90% | 1018.2 hPa | 0 mm | - | 0 W/m² | - |
| 1778127422 | 1.11° C | 88% | 1018.4 hPa | 0 mm | - | 0 W/m² | - |
| 1778127188 | 1.11° C | 88% | 1018.4 hPa | 0 mm | - | 0 W/m² | - |
| 1778126888 | 1.11° C | 87% | 1018.4 hPa | 0 mm | - | 0 W/m² | - |
| 1778126587 | 1.11° C | 87% | 1018.4 hPa | 0 mm | - | 0 W/m² | - |
* Rain latest hour (hover to see other rain measurements)
** Current wind speed in m/s (hover to see current wind gust speed)